Time;durP1;ratioP1;P1;durP2;ratioP2;P2;SDS_P1;SDS_P2;PMS_P1;PMS_P2;Temp;Humidity;BMP_temperature;BMP_pressure;BME280_temperature;BME280_humidity;BME280_pressure;Samples;Min_cycle;Max_cycle;Signal;HPM_P1;HPM_P2
2023/05/02 00:00:26;;;;;;;13.50;8.37;;;12.20;70.20;;;;;;5067246;28;21002;-66
2023/05/02 00:03:00;;;;;;;10.97;7.83;;;12.10;70.30;;;;;;5065274;28;20529;-66
2023/05/02 00:05:31;;;;;;;10.20;7.43;;;12.00;70.30;;;;;;5052970;28;20478;-66
2023/05/02 00:08:09;;;;;;;13.80;8.50;;;12.00;70.30;;;;;;5067923;28;21012;-66
2023/05/02 00:10:48;;;;;;;12.03;8.33;;;11.90;70.50;;;;;;5068105;28;20457;-66
2023/05/02 00:13:25;;;;;;;11.63;7.77;;;11.90;70.60;;;;;;5067448;28;20841;-66
2023/05/02 00:16:05;;;;;;;12.93;8.07;;;11.90;70.70;;;;;;5061339;28;20465;-65
2023/05/02 00:18:45;;;;;;;16.10;8.23;;;11.90;70.80;;;;;;5067394;28;20878;-66
2023/05/02 00:21:17;;;;;;;9.60;7.30;;;11.90;70.80;;;;;;5064338;28;20465;-65
2023/05/02 00:23:53;;;;;;;10.27;7.77;;;11.90;70.90;;;;;;5068272;28;20536;-65
2023/05/02 00:26:23;;;;;;;12.70;8.33;;;11.90;70.90;;;;;;5061656;28;20454;-65
2023/05/02 00:28:57;;;;;;;9.60;7.23;;;11.90;70.90;;;;;;5062753;28;20477;-65
2023/05/02 00:31:32;;;;;;;10.20;8.00;;;11.90;71.00;;;;;;5064437;28;20495;-65
2023/05/02 00:34:09;;;;;;;10.80;7.60;;;11.90;70.90;;;;;;5069873;28;20495;-65
2023/05/02 00:36:41;;;;;;;11.60;7.70;;;11.90;70.90;;;;;;5067406;28;20471;-65
2023/05/02 00:39:14;;;;;;;12.53;8.73;;;11.90;70.90;;;;;;5063828;28;20460;-66
2023/05/02 00:41:53;;;;;;;10.70;7.97;;;11.90;70.90;;;;;;5065339;28;20463;-66
2023/05/02 00:44:41;;;;;;;10.83;7.50;;;11.80;70.90;;;;;;5067222;28;20525;-66
2023/05/02 00:47:12;;;;;;;10.10;7.63;;;11.80;71.00;;;;;;5065842;28;20972;-65
2023/05/02 00:49:54;;;;;;;11.30;7.60;;;11.80;71.10;;;;;;5067527;28;20462;-65
2023/05/02 00:52:22;;;;;;;8.83;6.80;;;11.80;71.10;;;;;;5066815;28;21059;-65
2023/05/02 00:54:56;;;;;;;9.20;6.50;;;11.70;71.20;;;;;;5065691;28;20471;-65
2023/05/02 00:57:29;;;;;;;9.00;6.97;;;11.80;71.20;;;;;;5058750;28;20467;-65
2023/05/02 01:00:06;;;;;;;10.37;7.70;;;11.80;71.20;;;;;;5067385;28;20761;-65
2023/05/02 01:02:45;;;;;;;9.07;6.93;;;11.70;71.20;;;;;;5062584;28;20482;-65
2023/05/02 01:05:20;;;;;;;11.33;7.53;;;11.70;71.30;;;;;;5063656;28;20560;-65
2023/05/02 01:08:05;;;;;;;13.40;7.50;;;11.70;71.30;;;;;;5065395;28;20465;-65
2023/05/02 01:10:56;;;;;;;10.70;8.00;;;11.70;71.30;;;;;;5066531;28;20456;-65
2023/05/02 01:13:33;;;;;;;9.10;6.37;;;11.70;71.40;;;;;;5069587;28;20536;-65
2023/05/02 01:16:09;;;;;;;10.00;7.83;;;11.80;71.40;;;;;;5068296;28;20462;-65
2023/05/02 01:18:50;;;;;;;11.50;7.57;;;11.80;71.50;;;;;;5071474;28;20816;-65
2023/05/02 01:21:27;;;;;;;13.13;8.10;;;11.80;71.50;;;;;;5067316;28;20468;-66
2023/05/02 01:24:06;;;;;;;9.23;6.73;;;11.80;71.60;;;;;;5068423;28;20548;-66
2023/05/02 01:26:56;;;;;;;8.93;7.00;;;11.90;71.60;;;;;;5067312;28;20559;-65
2023/05/02 01:29:38;;;;;;;8.93;6.77;;;11.90;71.50;;;;;;5066924;28;20468;-67
2023/05/02 01:32:12;;;;;;;9.13;6.50;;;11.90;71.50;;;;;;5067052;28;20490;-65
2023/05/02 01:34:48;;;;;;;11.20;7.63;;;11.80;71.60;;;;;;5066258;28;20943;-65
2023/05/02 01:37:20;;;;;;;8.70;6.67;;;11.80;71.60;;;;;;5066396;28;20482;-65
2023/05/02 01:39:56;;;;;;;9.90;7.20;;;11.80;71.60;;;;;;5067858;28;20776;-65
2023/05/02 01:42:33;;;;;;;10.20;6.87;;;11.80;71.70;;;;;;5066603;28;21179;-65
2023/05/02 01:45:15;;;;;;;10.60;7.30;;;11.80;71.70;;;;;;5067784;28;20455;-65
2023/05/02 01:47:48;;;;;;;11.00;7.83;;;11.80;71.80;;;;;;5065180;28;20466;-65
2023/05/02 01:50:23;;;;;;;10.30;7.30;;;11.80;71.90;;;;;;5065986;28;20560;-65
2023/05/02 01:53:00;;;;;;;11.00;8.53;;;11.80;72.00;;;;;;5066874;28;20468;-65
2023/05/02 01:55:33;;;;;;;10.03;7.50;;;11.90;72.00;;;;;;5067117;28;20455;-65
2023/05/02 01:58:06;;;;;;;10.20;6.97;;;11.90;72.00;;;;;;5064237;28;20487;-65
2023/05/02 02:00:44;;;;;;;9.90;7.50;;;11.90;72.00;;;;;;5065218;28;20474;-65
2023/05/02 02:03:17;;;;;;;10.80;7.50;;;11.90;72.10;;;;;;5065339;28;20485;-64
2023/05/02 02:05:52;;;;;;;10.47;7.60;;;11.90;72.20;;;;;;5065909;28;20460;-65
2023/05/02 02:08:24;;;;;;;13.93;7.90;;;11.90;72.20;;;;;;5064042;28;20493;-65
2023/05/02 02:11:07;;;;;;;9.63;7.37;;;12.00;72.20;;;;;;5065976;28;20950;-65
2023/05/02 02:13:47;;;;;;;11.77;7.50;;;12.00;72.30;;;;;;5083127;28;21004;-66
2023/05/02 02:16:26;;;;;;;8.50;6.90;;;12.00;72.40;;;;;;5066365;28;20502;-67
2023/05/02 02:18:59;;;;;;;9.83;7.40;;;12.00;72.50;;;;;;5066751;28;20484;-66
2023/05/02 02:21:46;;;;;;;10.00;7.90;;;12.00;72.50;;;;;;5066883;28;20464;-66
2023/05/02 02:24:24;;;;;;;9.43;6.70;;;12.00;72.50;;;;;;5066827;28;20453;-66
2023/05/02 02:26:56;;;;;;;10.30;7.30;;;12.00;72.60;;;;;;5068419;28;20477;-66
2023/05/02 02:29:40;;;;;;;11.93;7.87;;;12.00;72.70;;;;;;5063916;28;20478;-67
2023/05/02 02:32:32;;;;;;;9.40;7.30;;;12.00;72.70;;;;;;5060764;28;20476;-68
2023/05/02 02:35:13;;;;;;;11.30;7.03;;;12.00;72.70;;;;;;5066520;28;20457;-67
2023/05/02 02:37:53;;;;;;;10.57;7.30;;;12.00;72.80;;;;;;5064716;28;20523;-66
2023/05/02 02:40:34;;;;;;;13.00;7.90;;;12.00;72.90;;;;;;5066609;28;20451;-66
2023/05/02 02:43:22;;;;;;;9.90;7.50;;;12.10;72.90;;;;;;5065226;28;20514;-66
2023/05/02 02:46:05;;;;;;;9.30;7.30;;;12.10;73.00;;;;;;5068003;28;20497;-66
2023/05/02 02:48:45;;;;;;;9.60;7.63;;;12.10;73.00;;;;;;5066561;28;20465;-66
2023/05/02 02:51:30;;;;;;;15.50;7.30;;;12.10;73.00;;;;;;5064685;28;20629;-66
2023/05/02 02:54:24;;;;;;;9.67;7.07;;;12.10;73.10;;;;;;5064474;28;20814;-66
2023/05/02 02:57:11;;;;;;;9.70;7.47;;;12.10;73.10;;;;;;5065003;28;20457;-66
2023/05/02 02:59:58;;;;;;;11.17;8.03;;;12.10;73.20;;;;;;5063140;28;20927;-66
2023/05/02 03:02:33;;;;;;;8.90;7.50;;;12.20;73.30;;;;;;5062157;28;20544;-66
2023/05/02 03:05:09;;;;;;;11.47;8.07;;;12.20;73.30;;;;;;5066341;28;20786;-66
2023/05/02 03:07:49;;;;;;;11.07;7.40;;;12.20;73.40;;;;;;5065000;28;20468;-66
2023/05/02 03:10:22;;;;;;;11.93;7.60;;;12.20;73.50;;;;;;5064019;28;20471;-66
2023/05/02 03:12:54;;;;;;;10.80;7.93;;;12.30;73.50;;;;;;5064903;28;20768;-66
2023/05/02 03:15:58;;;;;;;9.73;7.10;;;12.30;73.60;;;;;;5067353;28;20915;-66
2023/05/02 03:18:36;;;;;;;10.30;7.53;;;12.30;73.70;;;;;;5060363;28;20502;-66
2023/05/02 03:21:16;;;;;;;11.20;8.17;;;12.40;73.70;;;;;;5066085;28;20992;-70
2023/05/02 03:23:50;;;;;;;9.97;7.60;;;12.40;73.80;;;;;;5068216;28;20551;-67
2023/05/02 03:26:27;;;;;;;10.50;8.10;;;12.40;73.80;;;;;;5067905;28;20487;-67
2023/05/02 03:29:00;;;;;;;10.67;7.77;;;12.40;73.90;;;;;;5066413;28;20459;-66
2023/05/02 03:31:39;;;;;;;10.43;7.47;;;12.50;73.90;;;;;;5068765;28;20489;-66
2023/05/02 03:34:10;;;;;;;8.80;7.23;;;12.50;74.00;;;;;;5072312;28;20935;-66
2023/05/02 03:36:52;;;;;;;11.03;8.43;;;12.50;74.00;;;;;;5067400;28;21011;-66
2023/05/02 03:39:24;;;;;;;11.20;8.30;;;12.60;74.10;;;;;;5067627;28;20479;-67
2023/05/02 03:42:04;;;;;;;9.03;7.10;;;12.60;74.10;;;;;;5070466;28;20457;-66
2023/05/02 03:44:36;;;;;;;14.07;7.87;;;12.60;74.20;;;;;;5070826;28;20494;-66
2023/05/02 03:47:17;;;;;;;11.97;8.20;;;12.60;74.20;;;;;;5070459;28;20469;-66
2023/05/02 03:49:51;;;;;;;12.37;8.30;;;12.70;74.30;;;;;;5068263;28;20536;-68
2023/05/02 03:52:37;;;;;;;14.07;8.70;;;12.70;74.30;;;;;;5071233;28;20983;-66
2023/05/02 03:55:12;;;;;;;9.20;7.40;;;12.80;74.40;;;;;;5066071;28;20546;-66
2023/05/02 03:57:44;;;;;;;14.00;8.00;;;12.70;74.40;;;;;;5063636;28;20470;-66
2023/05/02 04:00:23;;;;;;;11.60;8.00;;;12.80;74.40;;;;;;5068883;28;20452;-67
2023/05/02 04:03:03;;;;;;;9.83;7.53;;;12.80;74.50;;;;;;5071323;28;21280;-66
2023/05/02 04:05:36;;;;;;;10.30;8.07;;;12.80;74.50;;;;;;5070814;28;20541;-67
2023/05/02 04:08:26;;;;;;;10.50;7.23;;;12.80;74.50;;;;;;5068029;28;20452;-66
2023/05/02 04:10:58;;;;;;;10.73;7.33;;;12.80;74.60;;;;;;5072273;28;20545;-66
2023/05/02 04:13:28;;;;;;;10.97;8.87;;;12.80;74.60;;;;;;5069765;28;20557;-66
2023/05/02 04:16:06;;;;;;;9.93;7.90;;;12.80;74.60;;;;;;5069260;28;20484;-66
2023/05/02 04:21:30;;;;;;;10.80;7.53;;;12.80;74.70;;;;;;5065252;28;20985;-67
2023/05/02 04:24:32;;;;;;;12.40;7.97;;;12.80;74.80;;;;;;5068201;28;20541;-66
2023/05/02 04:27:04;;;;;;;10.00;7.27;;;12.80;74.90;;;;;;5069677;28;20463;-67
2023/05/02 04:29:40;;;;;;;10.10;7.67;;;12.80;74.90;;;;;;5068029;28;20565;-66
2023/05/02 04:32:14;;;;;;;12.40;8.67;;;12.80;74.90;;;;;;5080385;28;20481;-66
2023/05/02 04:34:45;;;;;;;10.20;6.73;;;12.90;74.90;;;;;;5066650;28;20461;-66
2023/05/02 04:37:16;;;;;;;11.63;9.30;;;12.90;75.00;;;;;;5067960;28;20511;-66
2023/05/02 04:39:52;;;;;;;13.83;9.60;;;12.90;75.00;;;;;;5068573;28;20527;-65
2023/05/02 04:42:29;;;;;;;13.33;9.40;;;12.90;75.10;;;;;;5075240;28;20456;-66
2023/05/02 04:45:20;;;;;;;15.37;10.63;;;12.90;75.10;;;;;;5071750;28;20456;-66
2023/05/02 04:47:54;;;;;;;21.10;12.70;;;13.00;75.10;;;;;;5068786;28;20464;-66
2023/05/02 04:50:28;;;;;;;16.97;11.53;;;13.00;75.20;;;;;;5068812;28;20971;-65
2023/05/02 04:53:05;;;;;;;15.13;11.63;;;13.00;75.30;;;;;;5069054;28;20461;-66
2023/05/02 04:55:43;;;;;;;13.83;11.57;;;13.00;75.40;;;;;;5063749;28;20502;-66
2023/05/02 04:58:18;;;;;;;17.43;12.33;;;13.00;75.50;;;;;;5070266;28;20534;-66
2023/05/02 05:00:51;;;;;;;16.03;12.27;;;13.10;75.50;;;;;;5067235;28;20465;-66
2023/05/02 05:03:33;;;;;;;18.13;12.83;;;13.10;75.60;;;;;;5069250;28;20461;-66
2023/05/02 05:06:13;;;;;;;15.30;12.40;;;13.10;75.60;;;;;;5069923;28;20567;-66
2023/05/02 05:08:51;;;;;;;15.53;12.50;;;13.20;75.70;;;;;;5070546;28;20457;-66
2023/05/02 05:11:25;;;;;;;16.90;13.37;;;13.20;75.70;;;;;;5069326;28;20456;-66
2023/05/02 05:13:59;;;;;;;15.80;12.20;;;13.20;75.80;;;;;;5069176;28;20466;-66
2023/05/02 05:16:33;;;;;;;15.57;11.83;;;13.20;75.80;;;;;;5070219;28;20456;-66
2023/05/02 05:19:16;;;;;;;16.10;12.60;;;13.20;75.90;;;;;;5067174;28;20521;-66
2023/05/02 05:21:48;;;;;;;17.00;13.13;;;13.30;75.90;;;;;;5065947;28;20465;-66
2023/05/02 05:24:21;;;;;;;17.87;12.30;;;13.30;75.90;;;;;;5063497;28;20471;-66
2023/05/02 05:26:56;;;;;;;18.07;14.17;;;13.30;75.90;;;;;;5068624;28;20460;-66
2023/05/02 05:29:29;;;;;;;19.40;13.40;;;13.30;75.90;;;;;;5068719;28;20456;-66
2023/05/02 05:32:02;;;;;;;17.17;13.30;;;13.30;76.00;;;;;;5065462;28;21332;-65
2023/05/02 05:34:32;;;;;;;16.97;12.80;;;13.30;76.10;;;;;;5062180;28;20554;-65
2023/05/02 05:37:06;;;;;;;16.53;13.43;;;13.40;76.10;;;;;;5068966;28;20480;-66
2023/05/02 05:39:47;;;;;;;21.57;12.77;;;13.40;76.10;;;;;;5065901;28;20490;-66
2023/05/02 05:42:24;;;;;;;15.80;12.33;;;13.40;76.10;;;;;;5067610;28;20555;-66
2023/05/02 05:45:02;;;;;;;18.33;13.37;;;13.40;76.10;;;;;;5067092;28;20467;-66
2023/05/02 05:47:40;;;;;;;17.30;13.60;;;13.40;76.10;;;;;;5067467;28;20463;-66
2023/05/02 05:50:20;;;;;;;17.37;13.37;;;13.50;76.20;;;;;;5068172;28;20635;-66
2023/05/02 05:52:53;;;;;;;19.10;15.10;;;13.50;76.20;;;;;;5068043;28;20482;-66
2023/05/02 05:55:33;;;;;;;19.30;14.10;;;13.50;76.20;;;;;;5068706;28;20459;-66
2023/05/02 05:58:14;;;;;;;20.53;12.87;;;13.50;76.30;;;;;;5066431;28;20544;-66
2023/05/02 06:00:51;;;;;;;17.13;13.33;;;13.50;76.40;;;;;;5065991;28;20494;-66
2023/05/02 06:03:26;;;;;;;19.50;14.30;;;13.60;76.40;;;;;;5065585;28;20464;-66
2023/05/02 06:05:59;;;;;;;20.00;14.20;;;13.60;76.40;;;;;;5066202;28;20500;-65
2023/05/02 06:08:40;;;;;;;18.97;14.40;;;13.70;76.40;;;;;;5062083;28;20490;-65
2023/05/02 06:11:25;;;;;;;19.40;14.40;;;13.70;76.40;;;;;;5065258;28;20455;-66
2023/05/02 06:14:01;;;;;;;20.60;14.80;;;13.70;76.40;;;;;;5066887;28;20492;-66
2023/05/02 06:16:33;;;;;;;19.77;14.30;;;13.80;76.50;;;;;;5066511;28;20519;-66
2023/05/02 06:19:06;;;;;;;20.00;14.80;;;13.80;76.50;;;;;;5065386;28;20471;-66
2023/05/02 06:21:51;;;;;;;18.50;14.20;;;13.80;76.50;;;;;;5063020;28;20454;-65
2023/05/02 06:24:29;;;;;;;18.90;14.50;;;13.90;76.50;;;;;;5068469;28;20564;-65
2023/05/02 06:27:02;;;;;;;18.13;14.17;;;13.90;76.50;;;;;;5067020;28;20449;-65
2023/05/02 06:29:46;;;;;;;19.50;13.90;;;13.90;76.50;;;;;;5069202;28;20816;-66
2023/05/02 06:32:20;;;;;;;21.57;16.40;;;14.00;76.50;;;;;;5064347;28;20465;-65
2023/05/02 06:34:56;;;;;;;19.47;15.73;;;14.00;76.50;;;;;;5067213;28;20561;-65
2023/05/02 06:37:32;;;;;;;20.73;16.37;;;14.00;76.50;;;;;;5069299;28;20449;-65
2023/05/02 06:40:04;;;;;;;26.00;16.43;;;14.00;76.50;;;;;;5064301;28;20572;-65
2023/05/02 06:42:35;;;;;;;22.70;16.47;;;14.10;76.50;;;;;;5067272;28;20449;-65
2023/05/02 06:45:23;;;;;;;22.90;18.23;;;14.10;76.50;;;;;;5065631;28;20456;-65
2023/05/02 06:47:55;;;;;;;24.10;17.10;;;14.10;76.50;;;;;;5066860;28;20921;-65
2023/05/02 06:50:37;;;;;;;26.80;18.53;;;14.10;76.50;;;;;;5068169;28;20536;-65
2023/05/02 06:53:15;;;;;;;26.90;18.13;;;14.20;76.50;;;;;;5067955;28;20453;-65
2023/05/02 06:55:50;;;;;;;24.00;18.40;;;14.20;76.60;;;;;;5066779;28;20449;-65
2023/05/02 06:58:24;;;;;;;26.20;19.10;;;14.30;76.70;;;;;;5069361;28;20964;-66
2023/05/02 07:01:00;;;;;;;29.43;20.80;;;14.30;76.60;;;;;;5067033;28;20491;-66
2023/05/02 07:03:43;;;;;;;26.20;18.57;;;14.30;76.60;;;;;;5066979;28;20872;-66
2023/05/02 07:06:15;;;;;;;30.80;21.10;;;14.30;76.70;;;;;;5072487;28;20542;-66
2023/05/02 07:08:46;;;;;;;25.33;18.47;;;14.30;76.70;;;;;;5073725;28;20464;-66
2023/05/02 07:11:25;;;;;;;27.70;20.23;;;14.40;76.70;;;;;;5069487;28;20738;-66
2023/05/02 07:14:08;;;;;;;30.10;21.23;;;14.50;76.70;;;;;;5072652;28;20449;-66
2023/05/02 07:16:42;;;;;;;30.23;20.17;;;14.50;76.70;;;;;;5072821;28;20522;-66
2023/05/02 07:19:15;;;;;;;24.50;18.77;;;14.60;76.70;;;;;;5070049;28;20453;-66
2023/05/02 07:22:00;;;;;;;22.03;17.97;;;14.60;76.60;;;;;;5071538;28;20496;-66
2023/05/02 07:24:35;;;;;;;32.90;21.10;;;14.70;76.60;;;;;;5070966;28;20495;-66
2023/05/02 07:27:12;;;;;;;34.10;22.40;;;14.70;76.40;;;;;;5072167;28;20450;-66
2023/05/02 07:29:45;;;;;;;29.37;22.63;;;14.70;76.30;;;;;;5071881;28;20444;-67
2023/05/02 07:32:24;;;;;;;30.03;23.10;;;14.70;76.20;;;;;;5066102;28;20477;-66
2023/05/02 07:35:00;;;;;;;27.87;20.87;;;14.70;76.30;;;;;;5083970;28;20454;-66
2023/05/02 07:37:34;;;;;;;26.77;20.97;;;14.70;76.30;;;;;;5071429;28;20453;-66
2023/05/02 07:40:06;;;;;;;32.10;20.60;;;14.80;76.20;;;;;;5072271;28;20466;-65
2023/05/02 07:42:47;;;;;;;25.67;19.60;;;14.80;76.10;;;;;;5072193;28;20481;-66
2023/05/02 07:45:22;;;;;;;25.93;19.83;;;14.80;75.90;;;;;;5071777;28;20458;-66
2023/05/02 07:47:56;;;;;;;26.20;19.00;;;14.90;75.80;;;;;;5073597;28;20486;-66
2023/05/02 07:50:30;;;;;;;27.30;19.90;;;14.80;75.60;;;;;;5073447;28;20846;-66
2023/05/02 07:53:05;;;;;;;26.50;18.50;;;14.90;75.60;;;;;;5068914;28;20470;-66
2023/05/02 07:55:34;;;;;;;24.50;18.90;;;14.90;75.50;;;;;;5072075;28;20463;-66
2023/05/02 07:58:11;;;;;;;25.57;18.67;;;14.90;75.40;;;;;;5070971;28;20447;-66
2023/05/02 08:00:45;;;;;;;25.80;19.97;;;15.00;75.20;;;;;;5070806;28;20557;-66
2023/05/02 08:03:23;;;;;;;24.73;19.30;;;15.00;75.10;;;;;;5070535;28;20999;-67
2023/05/02 08:05:53;;;;;;;26.03;18.93;;;15.00;75.00;;;;;;5072359;28;20567;-66
2023/05/02 08:08:40;;;;;;;23.70;18.17;;;15.10;75.00;;;;;;5072327;28;20778;-66
2023/05/02 08:11:14;;;;;;;28.83;19.13;;;15.10;74.90;;;;;;5069978;28;20817;-66
2023/05/02 08:13:45;;;;;;;27.63;19.77;;;15.20;74.70;;;;;;5069546;28;20474;-66
2023/05/02 08:16:25;;;;;;;23.63;18.77;;;15.30;74.60;;;;;;5070546;28;20456;-66
2023/05/02 08:19:06;;;;;;;22.20;18.50;;;15.40;74.50;;;;;;5070595;28;20563;-64
2023/05/02 08:21:41;;;;;;;21.23;16.87;;;15.40;74.40;;;;;;5070194;28;20989;-66
2023/05/02 08:24:14;;;;;;;24.23;17.57;;;15.50;74.40;;;;;;5067178;28;20445;-66
2023/05/02 08:26:44;;;;;;;23.40;17.83;;;15.60;74.30;;;;;;5068928;28;20467;-66
2023/05/02 08:29:19;;;;;;;22.10;18.47;;;15.60;74.10;;;;;;5070538;28;20453;-66
2023/05/02 08:31:52;;;;;;;27.20;19.20;;;15.60;74.10;;;;;;5069509;28;20481;-66
2023/05/02 08:34:26;;;;;;;24.27;18.93;;;15.60;74.10;;;;;;5069623;28;20525;-65
2023/05/02 08:37:25;;;;;;;21.93;16.70;;;15.70;74.00;;;;;;5069908;28;20963;-66
2023/05/02 08:39:59;;;;;;;26.53;17.90;;;15.80;73.90;;;;;;5070038;28;20513;-66
2023/05/02 08:42:36;;;;;;;23.50;18.27;;;15.80;73.60;;;;;;5067712;28;20794;-66
2023/05/02 08:45:12;;;;;;;19.77;16.90;;;15.80;73.40;;;;;;5063700;28;20491;-66
2023/05/02 08:47:47;;;;;;;20.57;17.23;;;15.90;73.30;;;;;;5069417;28;20491;-66
2023/05/02 08:50:27;;;;;;;20.63;17.50;;;15.80;73.20;;;;;;5069804;28;20461;-64
2023/05/02 08:53:01;;;;;;;22.03;16.63;;;15.80;73.10;;;;;;5068528;28;20455;-64
2023/05/02 08:55:34;;;;;;;23.73;18.30;;;15.90;73.00;;;;;;5069027;28;20443;-64
2023/05/02 08:58:04;;;;;;;21.37;17.67;;;15.90;72.90;;;;;;5071631;28;20468;-66
2023/05/02 09:00:40;;;;;;;23.13;18.13;;;15.90;72.80;;;;;;5071598;28;20480;-65
2023/05/02 09:03:25;;;;;;;26.33;16.57;;;16.00;72.80;;;;;;5069770;28;20461;-64
2023/05/02 09:06:16;;;;;;;23.80;15.10;;;16.00;72.70;;;;;;5069158;28;20464;-65
2023/05/02 09:08:59;;;;;;;21.20;15.00;;;16.00;72.50;;;;;;5085377;28;20480;-64
2023/05/02 09:11:32;;;;;;;24.13;16.90;;;16.10;72.30;;;;;;5065431;28;20838;-65
2023/05/02 09:14:03;;;;;;;17.70;14.30;;;16.10;72.00;;;;;;5068666;28;20699;-64
2023/05/02 09:16:42;;;;;;;17.10;13.93;;;16.20;71.80;;;;;;5069930;28;20470;-64
2023/05/02 09:19:26;;;;;;;19.60;13.50;;;16.20;71.70;;;;;;5069664;28;20914;-64
2023/05/02 09:22:02;;;;;;;21.57;14.43;;;16.20;71.60;;;;;;5067929;28;20556;-64
2023/05/02 09:24:35;;;;;;;20.63;14.60;;;16.20;71.50;;;;;;5065343;28;20464;-64
2023/05/02 09:27:16;;;;;;;20.10;13.50;;;16.30;71.30;;;;;;5068633;28;20542;-65
2023/05/02 09:29:47;;;;;;;18.70;14.93;;;16.20;71.20;;;;;;5072525;28;20527;-64
2023/05/02 09:32:18;;;;;;;17.10;13.50;;;16.20;71.20;;;;;;5070161;28;20979;-64
2023/05/02 09:35:06;;;;;;;16.30;13.60;;;16.10;71.10;;;;;;5070878;28;20453;-64
2023/05/02 09:37:40;;;;;;;16.97;13.20;;;16.10;71.00;;;;;;5068141;28;21000;-64
2023/05/02 09:40:13;;;;;;;17.27;13.43;;;16.00;71.00;;;;;;5070044;28;20540;-64
2023/05/02 09:42:43;;;;;;;18.30;13.10;;;16.00;71.00;;;;;;5068221;28;20528;-64
2023/05/02 09:45:24;;;;;;;19.67;13.43;;;16.10;70.90;;;;;;5068948;28;20556;-64
2023/05/02 09:48:06;;;;;;;17.70;13.53;;;16.00;70.70;;;;;;5070622;28;20512;-64
2023/05/02 09:50:41;;;;;;;18.47;13.10;;;16.00;70.50;;;;;;5068181;28;20457;-64
2023/05/02 09:53:32;;;;;;;17.67;12.00;;;15.90;70.60;;;;;;5065925;28;20561;-64
2023/05/02 09:56:10;;;;;;;19.43;12.57;;;16.00;70.60;;;;;;5067658;28;20459;-65
2023/05/02 09:58:52;;;;;;;15.83;11.27;;;15.90;70.70;;;;;;5065551;28;20468;-65
2023/05/02 10:01:26;;;;;;;15.83;11.10;;;15.90;70.80;;;;;;5065468;28;20592;-64
2023/05/02 10:03:58;;;;;;;13.90;10.07;;;15.90;70.60;;;;;;5067585;28;20446;-64
2023/05/02 10:06:32;;;;;;;14.67;10.03;;;15.90;70.40;;;;;;5068224;28;20813;-64
2023/05/02 10:09:04;;;;;;;12.90;8.97;;;15.90;70.30;;;;;;5071808;28;20458;-64
2023/05/02 10:11:44;;;;;;;14.23;8.77;;;15.90;70.20;;;;;;5069374;28;20647;-64
2023/05/02 10:14:18;;;;;;;13.20;9.10;;;15.90;70.10;;;;;;5066371;28;20530;-64
2023/05/02 10:16:58;;;;;;;13.90;9.07;;;15.90;70.20;;;;;;5068684;28;20519;-64
2023/05/02 10:19:36;;;;;;;17.20;11.00;;;15.90;70.20;;;;;;5067963;28;20861;-64
2023/05/02 10:22:15;;;;;;;15.73;9.93;;;15.90;70.10;;;;;;5066993;28;20465;-64
2023/05/02 10:25:02;;;;;;;14.00;10.80;;;15.90;70.00;;;;;;5068637;28;20839;-65
2023/05/02 10:27:48;;;;;;;14.57;10.07;;;15.90;69.90;;;;;;5069308;28;20960;-64
2023/05/02 10:30:25;;;;;;;17.07;11.30;;;16.00;69.90;;;;;;5069031;28;20459;-65
2023/05/02 10:32:56;;;;;;;17.83;12.30;;;16.00;69.70;;;;;;5066225;28;20755;-64
2023/05/02 10:35:29;;;;;;;17.07;12.43;;;16.10;69.70;;;;;;5066663;28;20455;-65
2023/05/02 10:38:09;;;;;;;18.17;13.00;;;16.10;69.70;;;;;;5068511;28;20943;-64
2023/05/02 10:40:56;;;;;;;21.93;13.67;;;16.10;69.70;;;;;;5069963;28;20480;-65
2023/05/02 10:43:37;;;;;;;17.60;13.23;;;16.10;69.80;;;;;;5069899;28;20981;-65
2023/05/02 10:46:41;;;;;;;19.00;13.47;;;16.20;69.90;;;;;;5070977;28;20550;-65
2023/05/02 10:49:16;;;;;;;17.97;12.97;;;16.20;70.00;;;;;;4983062;28;20601;-64
2023/05/02 10:51:57;;;;;;;15.77;11.60;;;16.30;70.00;;;;;;5059441;28;20473;-64
2023/05/02 10:54:28;;;;;;;16.80;11.80;;;16.40;70.00;;;;;;5069643;28;20472;-64
2023/05/02 10:57:16;;;;;;;17.63;11.67;;;16.40;69.80;;;;;;5071773;28;20445;-64
2023/05/02 10:59:48;;;;;;;15.63;10.93;;;16.50;69.70;;;;;;5071771;28;20456;-64
2023/05/02 11:02:51;;;;;;;15.77;11.37;;;16.50;69.90;;;;;;5067268;28;20986;-64
2023/05/02 11:05:24;;;;;;;15.83;10.97;;;16.70;70.00;;;;;;5069928;28;20941;-65
2023/05/02 11:08:30;;;;;;;15.77;10.80;;;16.80;69.70;;;;;;5071610;28;20786;-64
2023/05/02 11:11:51;;;;;;;16.43;10.40;;;16.80;69.40;;;;;;5071422;28;20449;-65
2023/05/02 11:14:53;;;;;;;13.97;9.43;;;16.80;69.30;;;;;;4990465;28;20477;-65
2023/05/02 11:17:26;;;;;;;14.33;9.23;;;16.70;68.80;;;;;;4983422;28;20483;-64
2023/05/02 11:20:32;;;;;;;14.87;8.90;;;16.50;68.90;;;;;;4990127;28;20488;-64
2023/05/02 11:23:28;;;;;;;12.80;8.27;;;16.50;68.70;;;;;;4989615;28;20485;-64
2023/05/02 11:26:02;;;;;;;11.80;8.53;;;16.50;68.40;;;;;;4989199;28;20468;-65
2023/05/02 11:28:46;;;;;;;12.63;9.10;;;16.50;68.30;;;;;;4989072;28;20469;-66
2023/05/02 11:32:07;;;;;;;15.47;9.10;;;16.60;68.20;;;;;;4987626;28;20558;-65
2023/05/02 11:34:58;;;;;;;14.40;8.37;;;16.70;68.10;;;;;;4980850;28;20800;-65
2023/05/02 11:37:31;;;;;;;10.43;7.30;;;16.80;67.90;;;;;;5070891;28;20489;-65
2023/05/02 11:40:13;;;;;;;12.93;7.07;;;16.80;67.80;;;;;;5069814;28;20457;-65
2023/05/02 11:42:53;;;;;;;14.00;7.23;;;17.00;67.80;;;;;;5069216;28;20499;-65
2023/05/02 11:45:36;;;;;;;11.20;7.00;;;17.10;67.40;;;;;;5069687;28;20805;-65
2023/05/02 11:48:19;;;;;;;10.27;7.10;;;17.20;67.60;;;;;;5073372;28;20561;-65
2023/05/02 11:50:56;;;;;;;10.13;6.70;;;17.20;67.70;;;;;;5068877;28;20517;-65
2023/05/02 11:53:36;;;;;;;11.53;6.30;;;17.30;67.40;;;;;;5069662;28;20530;-65
2023/05/02 11:56:18;;;;;;;9.73;6.00;;;17.40;67.40;;;;;;5069337;28;20514;-65
2023/05/02 11:59:02;;;;;;;8.97;5.57;;;17.50;67.30;;;;;;5064109;28;20458;-64
2023/05/02 12:01:35;;;;;;;10.87;6.03;;;17.50;67.00;;;;;;5067321;28;20481;-65
2023/05/02 12:04:09;;;;;;;9.23;6.40;;;17.60;67.20;;;;;;5071500;28;20946;-65
2023/05/02 12:06:55;;;;;;;8.50;5.77;;;17.60;67.20;;;;;;5070840;28;20462;-64
2023/05/02 12:09:35;;;;;;;9.60;5.80;;;17.70;67.00;;;;;;5072300;28;20451;-64
2023/05/02 12:12:08;;;;;;;8.77;5.13;;;17.80;66.70;;;;;;5069885;28;20511;-65
2023/05/02 12:14:42;;;;;;;7.50;4.70;;;17.80;66.60;;;;;;5067918;28;20796;-65
2023/05/02 12:17:10;;;;;;;8.97;5.33;;;17.80;66.00;;;;;;5071300;28;20512;-65
2023/05/02 12:19:42;;;;;;;7.70;4.70;;;17.70;65.60;;;;;;5071851;28;20462;-65
2023/05/02 12:22:20;;;;;;;9.37;5.40;;;17.60;65.50;;;;;;5068519;28;20450;-65
2023/05/02 12:24:53;;;;;;;9.20;5.33;;;17.70;65.30;;;;;;5068846;28;20468;-65
2023/05/02 12:27:23;;;;;;;8.50;5.33;;;17.70;65.30;;;;;;5067756;28;20482;-65
2023/05/02 12:29:56;;;;;;;8.10;4.37;;;17.60;65.00;;;;;;5065823;28;20460;-65
2023/05/02 12:32:32;;;;;;;10.20;5.10;;;17.60;64.60;;;;;;5036040;28;20470;-65
2023/05/02 12:35:06;;;;;;;7.57;4.90;;;17.60;64.70;;;;;;5068383;28;20461;-65
2023/05/02 12:37:39;;;;;;;9.30;5.67;;;17.60;64.40;;;;;;5069230;28;20449;-65
2023/05/02 12:40:16;;;;;;;9.33;5.80;;;17.60;64.30;;;;;;5068604;28;20466;-64
2023/05/02 12:43:03;;;;;;;10.10;6.10;;;17.50;64.10;;;;;;5066749;28;20517;-64
2023/05/02 12:45:37;;;;;;;8.67;5.17;;;17.50;64.40;;;;;;5066229;28;20923;-64
2023/05/02 12:48:25;;;;;;;9.70;5.77;;;17.50;64.40;;;;;;5068438;28;20805;-65
2023/05/02 12:50:56;;;;;;;8.87;4.90;;;17.60;64.20;;;;;;5068607;28;20455;-64
2023/05/02 12:53:55;;;;;;;9.47;5.03;;;17.60;64.20;;;;;;5069012;28;20461;-64
2023/05/02 12:56:36;;;;;;;8.07;4.53;;;17.70;64.20;;;;;;5046780;28;20943;-64
2023/05/02 12:59:23;;;;;;;8.63;4.90;;;17.80;64.30;;;;;;5067530;28;20773;-65
2023/05/02 13:01:57;;;;;;;7.83;4.17;;;17.90;64.30;;;;;;5067280;28;20947;-65
2023/05/02 13:04:39;;;;;;;8.33;4.40;;;18.00;64.20;;;;;;5068095;28;20497;-65
2023/05/02 13:07:15;;;;;;;10.67;4.80;;;18.00;63.90;;;;;;5067193;28;21080;-65
2023/05/02 13:09:54;;;;;;;8.57;4.63;;;18.00;63.70;;;;;;5066270;28;20477;-65
2023/05/02 13:12:36;;;;;;;6.77;4.37;;;18.10;63.50;;;;;;5066885;28;20482;-65
2023/05/02 13:15:14;;;;;;;6.47;3.53;;;18.00;63.20;;;;;;5068929;28;20472;-65
2023/05/02 13:17:46;;;;;;;6.80;4.00;;;18.10;63.20;;;;;;5063775;28;20496;-65
2023/05/02 13:20:25;;;;;;;6.63;4.00;;;18.10;62.80;;;;;;5068025;28;20450;-65
2023/05/02 13:22:58;;;;;;;5.77;3.40;;;18.10;62.80;;;;;;5066711;28;20492;-65
2023/05/02 13:25:37;;;;;;;7.87;4.40;;;18.20;62.40;;;;;;5067856;28;20555;-65
2023/05/02 13:28:13;;;;;;;8.13;3.20;;;18.20;62.10;;;;;;5064990;28;20898;-65
2023/05/02 13:30:44;;;;;;;6.50;3.60;;;18.10;61.90;;;;;;5064231;28;20527;-65